Time;durP1;ratioP1;P1;durP2;ratioP2;P2;SDS_P1;SDS_P2;PMS_P1;PMS_P2;Temp;Humidity;BMP_temperature;BMP_pressure;BME280_temperature;BME280_humidity;BME280_pressure;Samples;Min_cycle;Max_cycle;Signal;HPM_P1;HPM_P2
2022/03/26 00:01:51;;;;;;;51.22;24.58;;;5.60;93.00;;;;;;5046577;28;20032;-76
2022/03/26 00:04:17;;;;;;;52.60;23.25;;;5.60;93.20;;;;;;5032158;28;20481;-76
2022/03/26 00:06:43;;;;;;;52.92;26.75;;;5.50;93.40;;;;;;5035931;28;20098;-76
2022/03/26 00:09:09;;;;;;;59.25;27.23;;;5.50;94.60;;;;;;5037953;28;20037;-76
2022/03/26 00:11:35;;;;;;;58.30;28.77;;;5.40;95.70;;;;;;5020059;28;20038;-76
2022/03/26 00:14:00;;;;;;;61.92;29.35;;;5.40;96.30;;;;;;5024031;28;20037;-76
2022/03/26 00:16:26;;;;;;;61.20;29.75;;;5.40;96.30;;;;;;5040592;28;20037;-76
2022/03/26 00:18:52;;;;;;;68.72;32.40;;;5.40;96.20;;;;;;5041760;28;20045;-76
2022/03/26 00:21:18;;;;;;;71.03;34.97;;;5.50;96.10;;;;;;5029733;28;20045;-76
2022/03/26 00:23:44;;;;;;;68.63;33.10;;;5.50;96.50;;;;;;5039982;28;20038;-76
2022/03/26 00:26:11;;;;;;;68.05;33.72;;;5.50;96.50;;;;;;5016679;28;20056;-76
2022/03/26 00:28:38;;;;;;;73.20;35.60;;;5.50;97.10;;;;;;5034150;28;20056;-76
2022/03/26 00:31:07;;;;;;;69.28;34.35;;;5.50;97.10;;;;;;5034624;28;20116;-76
2022/03/26 00:33:33;;;;;;;73.00;34.80;;;5.50;97.80;;;;;;5041549;28;20041;-76
2022/03/26 00:35:59;;;;;;;71.80;34.55;;;5.50;98.00;;;;;;5029832;28;20048;-75
2022/03/26 00:38:25;;;;;;;72.20;34.25;;;5.60;98.10;;;;;;5045765;28;20055;-76
2022/03/26 00:40:50;;;;;;;77.07;35.58;;;5.50;98.20;;;;;;5055230;28;20026;-76
2022/03/26 00:43:16;;;;;;;78.90;37.30;;;5.50;98.50;;;;;;5057232;28;20085;-75
2022/03/26 00:45:45;;;;;;;76.55;34.88;;;5.50;98.50;;;;;;5040706;28;20034;-76
2022/03/26 00:48:11;;;;;;;68.28;33.67;;;5.60;98.80;;;;;;5030097;28;20045;-76
2022/03/26 00:50:37;;;;;;;75.85;37.40;;;5.50;98.90;;;;;;5030504;28;20045;-76
2022/03/26 00:53:03;;;;;;;72.88;35.30;;;5.50;99.10;;;;;;5037740;28;20536;-76
2022/03/26 00:55:29;;;;;;;83.63;37.08;;;5.60;99.20;;;;;;5030068;28;20483;-76
2022/03/26 00:57:55;;;;;;;83.97;37.88;;;5.40;99.60;;;;;;5034131;28;20109;-76
2022/03/26 01:00:20;;;;;;;81.10;35.97;;;5.60;99.70;;;;;;5029763;28;20112;-76
2022/03/26 01:02:47;;;;;;;78.63;37.45;;;5.40;99.90;;;;;;5035918;28;20562;-76
2022/03/26 01:05:13;;;;;;;85.88;39.50;;;5.40;99.90;;;;;;5025084;28;20036;-76
2022/03/26 01:07:39;;;;;;;90.55;40.75;;;5.40;99.90;;;;;;5042986;28;20079;-76
2022/03/26 01:10:07;;;;;;;88.25;41.42;;;5.30;99.90;;;;;;5032159;28;20073;-76
2022/03/26 01:12:32;;;;;;;89.80;40.35;;;5.40;99.90;;;;;;5036903;28;20045;-76
2022/03/26 01:14:58;;;;;;;92.03;43.75;;;5.30;99.90;;;;;;5035201;28;20033;-76
2022/03/26 01:17:24;;;;;;;85.82;40.78;;;5.40;99.90;;;;;;5037601;28;20037;-76
2022/03/26 01:19:51;;;;;;;97.25;43.88;;;5.30;99.90;;;;;;5039954;28;20356;-76
2022/03/26 01:22:17;;;;;;;97.72;43.80;;;5.30;99.90;;;;;;5032835;28;20076;-76
2022/03/26 01:24:43;;;;;;;101.90;44.90;;;5.40;99.90;;;;;;5044353;28;20044;-76
2022/03/26 01:27:09;;;;;;;96.07;44.85;;;5.30;99.90;;;;;;5033448;28;20041;-76
2022/03/26 01:29:40;;;;;;;97.80;44.15;;;5.30;99.90;;;;;;5021356;28;20255;-76
2022/03/26 01:32:09;;;;;;;96.82;43.03;;;5.30;99.90;;;;;;5033354;28;20175;-76
2022/03/26 01:34:36;;;;;;;102.93;44.95;;;5.20;99.90;;;;;;5038364;28;20045;-76
2022/03/26 01:37:03;;;;;;;97.28;44.95;;;5.20;99.90;;;;;;5040154;28;20077;-76
2022/03/26 01:39:29;;;;;;;96.80;47.13;;;5.20;99.90;;;;;;5038320;28;20041;-76
2022/03/26 01:42:04;;;;;;;105.72;46.60;;;5.20;99.90;;;;;;5032856;28;20044;-75
2022/03/26 01:44:30;;;;;;;105.45;47.17;;;5.20;99.90;;;;;;5037398;28;20557;-76
2022/03/26 01:46:56;;;;;;;103.30;49.05;;;5.20;99.90;;;;;;5035656;28;20102;-76
2022/03/26 01:49:23;;;;;;;111.00;48.88;;;5.30;99.90;;;;;;5040233;28;20480;-75
2022/03/26 01:51:49;;;;;;;113.07;49.38;;;5.20;99.90;;;;;;5025381;28;20113;-76
2022/03/26 01:54:17;;;;;;;113.03;49.83;;;5.20;99.90;;;;;;5040161;28;20108;-76
2022/03/26 01:56:43;;;;;;;113.32;49.28;;;5.20;99.90;;;;;;5015035;28;20053;-76
2022/03/26 01:59:10;;;;;;;111.07;48.78;;;5.10;99.90;;;;;;5039801;28;20518;-76
2022/03/26 02:01:37;;;;;;;121.32;48.17;;;5.10;99.90;;;;;;5032269;28;20041;-76
2022/03/26 02:04:04;;;;;;;117.30;50.53;;;5.10;99.90;;;;;;5046240;28;20044;-76
2022/03/26 02:06:31;;;;;;;112.13;49.00;;;5.10;99.90;;;;;;5031036;28;20044;-76
2022/03/26 02:08:58;;;;;;;122.30;50.47;;;5.10;99.90;;;;;;5038736;28;20109;-75
2022/03/26 02:11:24;;;;;;;121.50;50.30;;;5.00;99.90;;;;;;5020031;28;20037;-76
2022/03/26 02:13:55;;;;;;;119.45;51.25;;;5.00;99.90;;;;;;5037300;28;20043;-76
2022/03/26 02:16:22;;;;;;;125.05;51.35;;;5.00;99.90;;;;;;5032929;28;20048;-76
2022/03/26 02:18:48;;;;;;;125.28;52.67;;;5.00;99.90;;;;;;5046086;28;20045;-76
2022/03/26 02:21:16;;;;;;;114.03;51.63;;;5.00;99.90;;;;;;5032745;28;20125;-76
2022/03/26 02:23:42;;;;;;;120.22;52.00;;;4.90;99.90;;;;;;5036796;28;20044;-76
2022/03/26 02:26:07;;;;;;;112.47;51.30;;;4.90;99.90;;;;;;5020367;28;20041;-76
2022/03/26 02:28:34;;;;;;;119.97;49.33;;;4.80;99.90;;;;;;5027620;28;20037;-76
2022/03/26 02:31:00;;;;;;;113.65;48.20;;;4.80;99.90;;;;;;5040619;28;20099;-75
2022/03/26 02:33:26;;;;;;;109.78;47.33;;;4.80;99.90;;;;;;5032974;28;20076;-76
2022/03/26 02:35:52;;;;;;;122.43;51.03;;;4.70;99.90;;;;;;5041686;28;20065;-75
2022/03/26 02:38:18;;;;;;;123.97;51.03;;;4.70;99.90;;;;;;5030795;28;20088;-76
2022/03/26 02:40:46;;;;;;;115.82;51.05;;;4.60;99.90;;;;;;5048915;28;20025;-76
2022/03/26 02:43:12;;;;;;;119.07;50.17;;;4.50;99.90;;;;;;5030716;28;20045;-76
2022/03/26 02:45:43;;;;;;;120.00;50.70;;;4.50;99.90;;;;;;5033082;28;20486;-76
2022/03/26 02:48:12;;;;;;;112.53;49.60;;;4.50;99.90;;;;;;5013818;28;20045;-76
2022/03/26 02:50:39;;;;;;;113.55;48.95;;;4.30;99.90;;;;;;5029800;28;20128;-76
2022/03/26 02:53:05;;;;;;;118.57;51.08;;;4.30;99.90;;;;;;5035405;28;20073;-76
2022/03/26 02:55:31;;;;;;;131.10;54.60;;;4.30;99.90;;;;;;5042867;28;20037;-76
2022/03/26 02:57:57;;;;;;;124.90;52.80;;;4.20;99.90;;;;;;5032446;28;20042;-76
2022/03/26 03:00:22;;;;;;;124.20;50.60;;;4.20;99.90;;;;;;5039728;28;20034;-76
2022/03/26 03:02:48;;;;;;;120.50;51.70;;;4.10;99.90;;;;;;5044064;28;20474;-75
2022/03/26 03:05:14;;;;;;;121.88;51.85;;;4.00;99.90;;;;;;5045905;28;20045;-75
2022/03/26 03:07:40;;;;;;;128.93;52.65;;;4.00;99.90;;;;;;5034629;28;20041;-75
2022/03/26 03:10:06;;;;;;;126.55;53.15;;;3.90;99.90;;;;;;5038690;28;20489;-75
2022/03/26 03:12:32;;;;;;;113.63;51.35;;;3.90;99.90;;;;;;5031787;28;20053;-75
2022/03/26 03:14:58;;;;;;;120.45;50.05;;;3.80;99.90;;;;;;5037785;28;20029;-75
2022/03/26 03:17:24;;;;;;;123.55;48.63;;;3.80;99.90;;;;;;5032652;28;20040;-76
2022/03/26 03:19:50;;;;;;;116.93;49.28;;;3.70;99.90;;;;;;5036134;28;20037;-77
2022/03/26 03:22:16;;;;;;;128.52;49.88;;;3.70;99.90;;;;;;5027631;28;20037;-75
2022/03/26 03:24:42;;;;;;;112.70;48.58;;;3.60;99.90;;;;;;5031211;28;20025;-75
2022/03/26 03:27:08;;;;;;;111.07;47.45;;;3.50;99.90;;;;;;5027125;28;20418;-75
2022/03/26 03:29:35;;;;;;;105.72;46.58;;;3.50;99.90;;;;;;5029962;28;20103;-76
2022/03/26 03:32:01;;;;;;;112.63;48.20;;;3.40;99.90;;;;;;5032079;28;20449;-76
2022/03/26 03:34:26;;;;;;;126.05;53.33;;;3.40;99.90;;;;;;5026674;28;20033;-76
2022/03/26 03:36:52;;;;;;;118.65;48.75;;;3.40;99.90;;;;;;5038292;28;20402;-75
2022/03/26 03:39:18;;;;;;;117.13;48.25;;;3.40;99.90;;;;;;5032951;28;20073;-76
2022/03/26 03:41:44;;;;;;;121.93;48.90;;;3.40;99.90;;;;;;5039397;28;20117;-76
2022/03/26 03:44:10;;;;;;;100.60;45.40;;;3.50;99.90;;;;;;5037123;28;20033;-76
2022/03/26 03:46:36;;;;;;;104.05;45.72;;;3.40;99.90;;;;;;5040988;28;20041;-75
2022/03/26 03:49:03;;;;;;;117.57;49.47;;;3.40;99.90;;;;;;5029254;28;20057;-75
2022/03/26 03:51:29;;;;;;;116.53;49.03;;;3.40;99.90;;;;;;5033984;28;20106;-76
2022/03/26 03:53:55;;;;;;;121.38;50.67;;;3.30;99.90;;;;;;5030510;28;20041;-76
2022/03/26 03:56:20;;;;;;;124.60;50.38;;;3.30;99.90;;;;;;5042072;28;20040;-75
2022/03/26 03:58:46;;;;;;;111.60;47.78;;;3.30;99.90;;;;;;5030831;28;20034;-75
2022/03/26 04:01:12;;;;;;;120.43;49.20;;;3.30;99.90;;;;;;5041585;28;20486;-76
2022/03/26 04:03:38;;;;;;;121.80;50.33;;;3.30;99.90;;;;;;5030556;28;20072;-76
2022/03/26 04:06:05;;;;;;;118.60;49.80;;;3.20;99.90;;;;;;5041241;28;20033;-75
2022/03/26 04:08:32;;;;;;;109.28;46.75;;;3.20;99.90;;;;;;5031857;28;20399;-76
2022/03/26 04:10:57;;;;;;;106.18;46.75;;;3.20;99.90;;;;;;5037995;28;20385;-76
2022/03/26 04:13:23;;;;;;;111.80;45.80;;;3.10;99.90;;;;;;5031989;28;20041;-76
2022/03/26 04:15:49;;;;;;;108.07;46.33;;;3.10;99.90;;;;;;5044513;28;20044;-75
2022/03/26 04:18:15;;;;;;;103.05;42.72;;;3.10;99.90;;;;;;5043065;28;20049;-76
2022/03/26 04:20:41;;;;;;;105.13;43.70;;;3.10;99.90;;;;;;5035819;28;20037;-76
2022/03/26 04:23:08;;;;;;;101.43;40.85;;;3.00;99.90;;;;;;5037267;28;20048;-75
2022/03/26 04:25:34;;;;;;;101.50;41.65;;;3.00;99.90;;;;;;5033917;28;20044;-76
2022/03/26 04:27:59;;;;;;;101.35;40.42;;;3.10;99.90;;;;;;5038180;28;20046;-76
2022/03/26 04:30:25;;;;;;;87.57;36.88;;;2.90;99.90;;;;;;5032851;28;20094;-76
2022/03/26 04:32:51;;;;;;;96.00;39.45;;;2.80;99.90;;;;;;5043992;28;20037;-75
2022/03/26 04:35:17;;;;;;;101.97;41.80;;;2.70;99.90;;;;;;5039389;28;20041;-75
2022/03/26 04:37:43;;;;;;;102.18;41.30;;;2.60;99.90;;;;;;5042664;28;20148;-76
2022/03/26 04:40:14;;;;;;;99.88;39.80;;;2.60;99.90;;;;;;5027982;28;20200;-75
2022/03/26 04:42:43;;;;;;;103.68;43.17;;;2.60;99.90;;;;;;5043581;28;20041;-75
2022/03/26 04:45:09;;;;;;;101.38;41.55;;;2.70;99.90;;;;;;5040137;28;20123;-75
2022/03/26 04:47:35;;;;;;;110.43;41.97;;;2.50;99.90;;;;;;5044740;28;20594;-75
2022/03/26 04:50:01;;;;;;;115.75;47.15;;;2.80;99.90;;;;;;5005204;28;20073;-75
2022/03/26 04:52:27;;;;;;;116.13;47.58;;;2.60;99.90;;;;;;5033394;28;20079;-75
2022/03/26 04:54:53;;;;;;;107.07;45.33;;;2.70;99.90;;;;;;5030073;28;20033;-76
2022/03/26 04:57:18;;;;;;;110.30;45.20;;;2.70;99.90;;;;;;5042515;28;20112;-75
2022/03/26 04:59:45;;;;;;;98.50;40.63;;;2.70;99.90;;;;;;5037217;28;20453;-76
2022/03/26 05:02:11;;;;;;;91.68;38.78;;;2.70;99.90;;;;;;5041333;28;20067;-75
2022/03/26 05:04:36;;;;;;;96.72;39.92;;;2.70;99.90;;;;;;5035030;28;20099;-75
2022/03/26 05:07:45;;;;;;;93.38;40.42;;;2.70;99.90;;;;;;5039872;28;20060;-76
2022/03/26 05:09:48;;;;;;;102.90;42.03;;;2.70;99.90;;;;;;5030366;28;20513;-76
2022/03/26 05:12:14;;;;;;;97.50;39.85;;;2.70;99.90;;;;;;5033910;28;20125;-75
2022/03/26 05:14:39;;;;;;;98.10;41.35;;;2.60;99.90;;;;;;5029551;28;20041;-75
2022/03/26 05:17:05;;;;;;;98.95;39.55;;;2.60;99.90;;;;;;5032284;28;20659;-75
2022/03/26 05:19:31;;;;;;;100.25;40.85;;;2.60;99.90;;;;;;5024857;28;20044;-75
2022/03/26 05:21:56;;;;;;;89.30;37.75;;;2.50;99.90;;;;;;5034141;28;20037;-76
2022/03/26 05:24:22;;;;;;;102.82;40.95;;;2.50;99.90;;;;;;5036709;28;20039;-75
2022/03/26 05:26:48;;;;;;;93.75;39.40;;;2.40;99.90;;;;;;5035667;28;20037;-76
2022/03/26 05:29:13;;;;;;;96.07;38.65;;;2.50;99.90;;;;;;5027543;28;20041;-75
2022/03/26 05:31:39;;;;;;;93.50;37.25;;;2.40;99.90;;;;;;5032554;28;20040;-75
2022/03/26 05:34:05;;;;;;;97.15;41.33;;;2.30;99.90;;;;;;5032355;28;20053;-75
2022/03/26 05:36:30;;;;;;;92.85;38.10;;;2.30;99.90;;;;;;5021585;28;20566;-75
2022/03/26 05:38:57;;;;;;;112.43;45.33;;;2.30;99.90;;;;;;5032828;28;20124;-76
2022/03/26 05:41:23;;;;;;;117.40;46.28;;;2.30;99.90;;;;;;5040658;28;20041;-75
2022/03/26 05:43:50;;;;;;;121.07;49.25;;;2.30;99.90;;;;;;5024227;28;20049;-76
2022/03/26 05:46:16;;;;;;;119.47;46.38;;;2.40;99.90;;;;;;5027683;28;20068;-75
2022/03/26 05:48:42;;;;;;;119.22;46.33;;;2.40;99.90;;;;;;5021870;28;20487;-76
2022/03/26 05:51:07;;;;;;;125.32;47.50;;;2.50;99.90;;;;;;5033443;28;20176;-75
2022/03/26 05:53:33;;;;;;;102.88;43.30;;;2.50;99.90;;;;;;5048485;28;20033;-75
2022/03/26 05:55:59;;;;;;;114.57;44.92;;;2.60;99.90;;;;;;5035028;28;20035;-75
2022/03/26 05:58:25;;;;;;;105.25;43.45;;;2.50;99.90;;;;;;5042595;28;20490;-75
2022/03/26 06:00:50;;;;;;;101.20;42.45;;;2.50;99.90;;;;;;5032641;28;20041;-75
2022/03/26 06:03:18;;;;;;;105.00;41.92;;;2.50;99.90;;;;;;5033772;28;20466;-75
2022/03/26 06:05:44;;;;;;;107.88;44.25;;;2.50;99.90;;;;;;5035539;28;20116;-75
2022/03/26 06:08:10;;;;;;;101.90;44.55;;;2.50;99.90;;;;;;5043727;28;20094;-75
2022/03/26 06:10:36;;;;;;;106.68;42.63;;;2.50;99.90;;;;;;5034656;28;20033;-75
2022/03/26 06:13:02;;;;;;;103.15;44.90;;;2.50;99.90;;;;;;5042496;28;20471;-75
2022/03/26 06:15:27;;;;;;;115.20;44.78;;;2.60;99.90;;;;;;5032440;28;20120;-75
2022/03/26 06:17:53;;;;;;;115.85;46.03;;;2.70;99.90;;;;;;5040472;28;20032;-75
2022/03/26 06:20:19;;;;;;;119.10;45.85;;;2.70;99.90;;;;;;5035200;28;20037;-75
2022/03/26 06:22:44;;;;;;;123.07;47.75;;;2.80;99.90;;;;;;5047311;28;20037;-75
2022/03/26 06:25:10;;;;;;;115.57;47.53;;;2.90;99.90;;;;;;5035212;28;20495;-75
2022/03/26 06:27:36;;;;;;;132.50;48.80;;;3.00;99.90;;;;;;5036557;28;20036;-75
2022/03/26 06:30:03;;;;;;;133.30;51.15;;;3.00;99.90;;;;;;5038175;28;20037;-75
2022/03/26 06:32:28;;;;;;;125.15;48.67;;;3.10;99.90;;;;;;5034360;28;20048;-75
2022/03/26 06:34:54;;;;;;;116.22;47.70;;;3.40;99.90;;;;;;5040922;28;20391;-76
2022/03/26 06:37:21;;;;;;;111.50;45.67;;;3.30;99.90;;;;;;5032771;28;20052;-75
2022/03/26 06:39:46;;;;;;;117.95;43.78;;;3.30;99.90;;;;;;5040963;28;20056;-76
2022/03/26 06:42:12;;;;;;;106.45;43.10;;;3.40;99.90;;;;;;5030728;28;20037;-75
2022/03/26 06:44:38;;;;;;;133.82;50.38;;;3.50;99.90;;;;;;5043855;28;20545;-75
2022/03/26 06:47:06;;;;;;;139.23;52.40;;;3.50;99.90;;;;;;5027869;28;20044;-75
2022/03/26 06:49:32;;;;;;;148.35;56.53;;;3.70;99.90;;;;;;5037399;28;20045;-75
2022/03/26 06:51:59;;;;;;;148.65;57.35;;;3.80;99.90;;;;;;5028296;28;20041;-76
2022/03/26 06:54:25;;;;;;;157.10;58.75;;;3.90;99.90;;;;;;5034559;28;20144;-75
2022/03/26 06:56:51;;;;;;;157.88;58.58;;;4.00;99.90;;;;;;5026264;28;20042;-75
2022/03/26 06:59:17;;;;;;;146.77;58.70;;;4.20;99.90;;;;;;5025487;28;20094;-75
2022/03/26 07:01:44;;;;;;;148.95;54.33;;;4.40;99.90;;;;;;5034481;28;20389;-75
2022/03/26 07:04:10;;;;;;;141.15;55.28;;;4.60;99.90;;;;;;5040518;28;20124;-75
2022/03/26 07:06:35;;;;;;;138.63;54.28;;;4.90;99.90;;;;;;5014309;28;20163;-75
2022/03/26 07:09:01;;;;;;;130.43;51.75;;;5.00;99.90;;;;;;5033160;28;20033;-75
2022/03/26 07:11:27;;;;;;;125.78;49.42;;;5.40;99.90;;;;;;5031644;28;20068;-75
2022/03/26 07:13:53;;;;;;;116.28;48.90;;;5.40;99.90;;;;;;5032937;28;20036;-75
2022/03/26 07:16:18;;;;;;;122.75;45.42;;;5.50;99.90;;;;;;5030876;28;20045;-75
2022/03/26 07:18:44;;;;;;;112.28;45.83;;;5.60;99.90;;;;;;5039926;28;20115;-75
2022/03/26 07:21:10;;;;;;;120.35;47.70;;;5.80;99.90;;;;;;5030624;28;20084;-75
2022/03/26 07:23:36;;;;;;;111.80;44.33;;;5.90;99.90;;;;;;5030509;28;20037;-75
2022/03/26 07:26:02;;;;;;;111.95;44.22;;;6.20;99.90;;;;;;5032884;28;20084;-75
2022/03/26 07:28:28;;;;;;;104.53;42.90;;;6.40;99.90;;;;;;5016999;28;20360;-76
2022/03/26 07:30:54;;;;;;;99.93;42.20;;;6.70;99.90;;;;;;5034517;28;20391;-75
2022/03/26 07:33:19;;;;;;;93.60;42.45;;;7.00;99.90;;;;;;5031702;28;20052;-75
2022/03/26 07:35:45;;;;;;;96.78;41.13;;;7.30;99.90;;;;;;5039180;28;20120;-75
2022/03/26 07:38:11;;;;;;;85.95;39.92;;;7.70;99.90;;;;;;5030920;28;20152;-75
2022/03/26 07:40:37;;;;;;;95.50;42.65;;;8.50;99.90;;;;;;5034908;28;20540;-76
2022/03/26 07:43:03;;;;;;;100.90;46.47;;;9.40;99.90;;;;;;5037797;28;20045;-75
2022/03/26 07:45:29;;;;;;;96.50;45.05;;;10.30;99.90;;;;;;5039193;28;20052;-75
2022/03/26 07:47:56;;;;;;;93.70;45.53;;;11.10;99.90;;;;;;5031432;28;20092;-75
2022/03/26 07:50:22;;;;;;;96.55;44.65;;;12.00;99.90;;;;;;5040671;28;20038;-76
2022/03/26 07:52:48;;;;;;;98.63;47.85;;;12.40;99.90;;;;;;5031552;28;20037;-76
2022/03/26 07:55:14;;;;;;;89.18;45.58;;;13.30;99.90;;;;;;5029660;28;20036;-76
2022/03/26 07:57:40;;;;;;;93.13;46.15;;;13.60;99.90;;;;;;5029917;28;20124;-76
2022/03/26 08:00:06;;;;;;;80.85;42.95;;;14.20;99.90;;;;;;4998284;28;20410;-76
2022/03/26 08:02:32;;;;;;;83.15;42.35;;;14.50;99.90;;;;;;5037314;28;20044;-76
2022/03/26 08:04:59;;;;;;;84.13;43.38;;;14.90;98.70;;;;;;5044396;28;20049;-76
2022/03/26 08:07:25;;;;;;;74.65;40.50;;;15.40;97.80;;;;;;5028491;28;20045;-76
2022/03/26 08:09:51;;;;;;;73.72;40.55;;;15.60;96.30;;;;;;5024314;28;20042;-76
2022/03/26 08:12:17;;;;;;;77.55;41.70;;;15.70;94.80;;;;;;5026944;28;20037;-76
2022/03/26 08:14:42;;;;;;;78.32;41.42;;;15.80;94.20;;;;;;5028985;28;20384;-76
2022/03/26 08:17:09;;;;;;;73.65;37.63;;;16.00;92.20;;;;;;5028524;28;20049;-76
2022/03/26 08:19:36;;;;;;;75.30;37.55;;;16.30;90.60;;;;;;5030144;28;20038;-76
2022/03/26 08:22:03;;;;;;;69.65;37.30;;;16.50;90.50;;;;;;5030854;28;20037;-76
2022/03/26 08:24:29;;;;;;;63.42;36.15;;;16.70;90.10;;;;;;5028406;28;20103;-76
2022/03/26 08:26:55;;;;;;;66.10;35.47;;;16.90;88.60;;;;;;5027306;28;20041;-76
2022/03/26 08:29:20;;;;;;;68.35;37.35;;;17.10;87.40;;;;;;5028870;28;20047;-76
2022/03/26 08:31:46;;;;;;;69.00;36.80;;;17.20;85.40;;;;;;5031144;28;20106;-76
2022/03/26 08:34:12;;;;;;;60.92;36.38;;;17.50;84.30;;;;;;5028960;28;20095;-76
2022/03/26 08:36:38;;;;;;;63.38;35.67;;;17.40;83.70;;;;;;5032655;28;20045;-76
2022/03/26 08:39:04;;;;;;;66.50;35.88;;;17.50;81.30;;;;;;5027899;28;20068;-75
2022/03/26 08:41:30;;;;;;;62.88;33.42;;;17.90;81.40;;;;;;5029935;28;20506;-75
2022/03/26 08:43:56;;;;;;;53.83;28.17;;;18.20;81.50;;;;;;5009869;28;20092;-76
2022/03/26 08:46:23;;;;;;;59.30;30.20;;;18.30;77.30;;;;;;5029800;28;20044;-76
2022/03/26 08:48:50;;;;;;;47.97;28.27;;;18.60;76.60;;;;;;5029858;28;20609;-76
2022/03/26 08:51:16;;;;;;;53.63;26.65;;;19.00;75.30;;;;;;5028696;28;20037;-75
2022/03/26 08:53:42;;;;;;;43.83;25.75;;;19.10;73.10;;;;;;5026749;28;20471;-76
2022/03/26 08:56:09;;;;;;;53.08;27.30;;;19.10;72.10;;;;;;5028518;28;20033;-76
2022/03/26 08:58:36;;;;;;;43.55;25.45;;;19.40;70.10;;;;;;5029058;28;20123;-76
2022/03/26 09:01:03;;;;;;;48.92;26.10;;;19.30;68.30;;;;;;5031698;28;20041;-76
2022/03/26 09:03:29;;;;;;;46.65;27.23;;;19.20;67.70;;;;;;5028918;28;20102;-74
2022/03/26 09:05:56;;;;;;;48.15;25.92;;;19.70;67.80;;;;;;5030330;28;20037;-74
2022/03/26 09:08:22;;;;;;;47.05;25.05;;;20.00;66.70;;;;;;5028719;28;20094;-74
2022/03/26 09:10:48;;;;;;;48.03;25.65;;;20.10;65.50;;;;;;5011068;28;20475;-74
2022/03/26 09:13:15;;;;;;;48.20;25.38;;;19.60;64.50;;;;;;5032254;28;20068;-73
2022/03/26 09:15:40;;;;;;;40.97;22.90;;;19.60;64.30;;;;;;5027304;28;20352;-74
2022/03/26 09:18:07;;;;;;;39.42;23.35;;;19.70;65.10;;;;;;5028258;28;20042;-75
2022/03/26 09:20:33;;;;;;;41.80;22.38;;;19.50;64.80;;;;;;5026581;28;20048;-76
2022/03/26 09:22:58;;;;;;;39.50;20.80;;;20.00;65.10;;;;;;5039777;28;20042;-75
2022/03/26 09:25:24;;;;;;;44.42;22.45;;;20.20;65.00;;;;;;5032122;28;20026;-75
2022/03/26 09:27:51;;;;;;;32.88;19.27;;;20.00;63.60;;;;;;5032875;28;20061;-76
2022/03/26 09:30:17;;;;;;;37.50;20.95;;;19.80;63.70;;;;;;5033563;28;20121;-76
2022/03/26 09:32:44;;;;;;;31.58;20.20;;;20.00;63.90;;;;;;5033144;28;20029;-76
2022/03/26 09:35:11;;;;;;;35.05;20.45;;;19.90;64.60;;;;;;5030729;28;20040;-76
2022/03/26 09:37:38;;;;;;;32.17;19.48;;;20.30;64.60;;;;;;5032198;28;20056;-75
2022/03/26 09:40:04;;;;;;;34.10;21.02;;;20.60;64.50;;;;;;5031584;28;20037;-75
2022/03/26 09:42:32;;;;;;;38.13;20.10;;;20.80;64.50;;;;;;5042922;28;20041;-76
2022/03/26 09:44:58;;;;;;;31.80;20.02;;;20.90;64.50;;;;;;5033513;28;20037;-76
2022/03/26 09:47:24;;;;;;;32.95;20.25;;;20.80;63.90;;;;;;5013997;28;20048;-76
2022/03/26 09:49:50;;;;;;;30.02;18.90;;;21.40;63.90;;;;;;5031738;28;20030;-76
2022/03/26 09:52:17;;;;;;;30.25;20.17;;;21.20;64.90;;;;;;5030131;28;20073;-76
2022/03/26 09:54:43;;;;;;;29.17;19.38;;;21.20;66.50;;;;;;5031690;28;20041;-76
2022/03/26 09:57:09;;;;;;;31.08;18.45;;;21.20;67.10;;;;;;5032561;28;20041;-75
2022/03/26 09:59:35;;;;;;;24.42;17.08;;;21.00;67.80;;;;;;5034145;28;20088;-76
2022/03/26 10:02:02;;;;;;;27.80;17.63;;;20.70;68.40;;;;;;5034526;28;20095;-76
2022/03/26 10:04:37;;;;;;;21.67;15.98;;;20.50;68.20;;;;;;5030482;28;20387;-77
2022/03/26 10:07:04;;;;;;;24.92;15.45;;;20.60;68.80;;;;;;5031081;28;20044;-77
2022/03/26 10:09:33;;;;;;;27.75;17.75;;;20.60;69.40;;;;;;5029178;28;20105;-75
2022/03/26 10:12:04;;;;;;;24.40;14.63;;;20.70;69.80;;;;;;5033499;28;20060;-77
2022/03/26 10:15:00;;;;;;;17.60;12.85;;;20.70;70.30;;;;;;5031096;28;20498;-77
2022/03/26 10:17:33;;;;;;;15.57;10.80;;;21.00;68.40;;;;;;5031575;28;20045;-76
2022/03/26 10:20:02;;;;;;;16.33;11.07;;;21.10;67.80;;;;;;5029168;28;20610;-78
2022/03/26 10:22:50;;;;;;;16.98;11.10;;;21.20;66.10;;;;;;5031437;28;20042;-77
2022/03/26 10:25:18;;;;;;;17.85;12.57;;;21.10;64.60;;;;;;5032113;28;20041;-77
2022/03/26 10:27:46;;;;;;;14.88;10.10;;;21.50;66.40;;;;;;5030623;28;20068;-77
2022/03/26 10:33:20;;;;;;;22.77;12.48;;;21.80;63.70;;;;;;5030080;28;20060;-78
2022/03/26 10:35:57;;;;;;;14.35;11.02;;;21.60;64.90;;;;;;5034152;28;20038;-77
2022/03/26 10:38:34;;;;;;;13.93;10.88;;;21.30;64.00;;;;;;5033445;28;20128;-77
2022/03/26 10:41:01;;;;;;;15.52;10.57;;;21.20;65.20;;;;;;5027602;28;20418;-77
2022/03/26 10:43:27;;;;;;;17.80;12.23;;;20.90;65.80;;;;;;5016528;28;20045;-77
2022/03/26 10:45:59;;;;;;;17.50;12.57;;;20.60;65.80;;;;;;4997226;28;20037;-76
2022/03/26 10:48:30;;;;;;;17.98;12.48;;;20.50;65.00;;;;;;5054531;28;20047;-76
2022/03/26 10:51:01;;;;;;;18.85;13.60;;;20.80;65.90;;;;;;5033674;28;20059;-77
2022/03/26 10:53:46;;;;;;;19.13;13.57;;;20.80;65.90;;;;;;5062951;28;20037;-76
2022/03/26 10:56:14;;;;;;;22.92;12.52;;;20.50;66.70;;;;;;5034851;28;20430;-77
2022/03/26 10:58:43;;;;;;;22.00;13.80;;;20.60;67.00;;;;;;5036311;28;20037;-78
2022/03/26 11:01:09;;;;;;;20.70;14.05;;;20.40;67.10;;;;;;5031710;28;20128;-78
2022/03/26 11:03:36;;;;;;;20.20;13.77;;;20.60;67.10;;;;;;5031103;28;20132;-79
2022/03/26 11:06:06;;;;;;;22.88;15.23;;;20.90;66.70;;;;;;5031606;28;20049;-76
2022/03/26 11:08:32;;;;;;;19.95;13.38;;;21.30;67.10;;;;;;5030624;28;20054;-76
2022/03/26 11:11:04;;;;;;;18.45;13.48;;;20.90;66.20;;;;;;5030500;28;20272;-76
2022/03/26 11:13:32;;;;;;;18.60;13.13;;;21.00;66.70;;;;;;5032515;28;20037;-75
2022/03/26 11:16:02;;;;;;;17.73;12.48;;;20.80;66.50;;;;;;5030865;28;20033;-77
2022/03/26 11:18:47;;;;;;;17.55;11.63;;;21.10;66.50;;;;;;5034096;28;20567;-77
2022/03/26 11:21:12;;;;;;;19.38;12.63;;;21.00;66.40;;;;;;5059550;28;20048;-78
2022/03/26 11:23:44;;;;;;;19.80;12.30;;;20.60;66.80;;;;;;5035538;28;20458;-79
2022/03/26 11:26:35;;;;;;;18.35;13.93;;;20.50;67.80;;;;;;5032348;28;20493;-79
2022/03/26 11:29:33;;;;;;;19.80;13.98;;;20.50;68.60;;;;;;5039979;28;20041;-79
2022/03/26 11:32:07;;;;;;;18.38;14.02;;;20.50;67.70;;;;;;5004775;28;20085;-78
2022/03/26 11:34:37;;;;;;;17.95;11.95;;;20.40;68.10;;;;;;5033517;28;20047;-77
2022/03/26 11:37:20;;;;;;;19.67;13.20;;;19.90;68.20;;;;;;5030145;28;20045;-80
2022/03/26 11:39:48;;;;;;;24.52;13.93;;;19.80;68.90;;;;;;5033681;28;20045;-80
2022/03/26 11:42:14;;;;;;;19.35;14.32;;;19.50;69.50;;;;;;5041183;28;20123;-78
2022/03/26 11:50:41;;;;;;;18.92;14.18;;;19.40;70.20;;;;;;5039582;28;20112;-79
2022/03/26 11:50:41;;;;;;;20.15;13.45;;;18.90;70.80;;;;;;5039433;28;20490;-79
2022/03/26 11:53:14;;;;;;;21.77;13.55;;;19.10;71.60;;;;;;5030867;28;20033;-80
2022/03/26 11:55:42;;;;;;;;;;;19.00;71.50;;;;;;5021818;28;20040;-79
2022/03/26 11:58:24;;;;;;;14.68;10.30;;;19.00;70.90;;;;;;5036164;28;19967;-80
2022/03/26 12:01:04;;;;;;;17.80;12.05;;;19.10;70.90;;;;;;5022005;28;20084;-78
2022/03/26 12:03:40;;;;;;;18.27;11.43;;;19.10;72.30;;;;;;5030080;28;20041;-77
2022/03/26 12:08:57;;;;;;;15.10;10.05;;;19.40;71.40;;;;;;5032739;28;20041;-78
2022/03/26 12:11:33;;;;;;;14.57;10.52;;;19.20;71.00;;;;;;5045310;28;20033;-78
2022/03/26 12:14:04;;;;;;;14.65;9.15;;;19.30;71.00;;;;;;5020660;28;20049;-79
2022/03/26 12:16:52;;;;;;;13.80;9.68;;;19.10;71.00;;;;;;5042664;28;20040;-78
2022/03/26 12:19:50;;;;;;;14.55;9.80;;;19.30;71.60;;;;;;5025623;28;20098;-78
2022/03/26 12:22:34;;;;;;;12.73;8.32;;;19.40;70.50;;;;;;5030400;28;20041;-77
2022/03/26 12:25:00;;;;;;;13.27;8.77;;;19.30;70.00;;;;;;5023234;28;20044;-78
2022/03/26 12:27:27;;;;;;;12.43;8.68;;;19.20;70.40;;;;;;5034830;28;20048;-78
2022/03/26 12:29:57;;;;;;;11.55;8.52;;;19.20;70.90;;;;;;5038786;28;20068;-76
2022/03/26 12:32:34;;;;;;;11.07;7.72;;;19.00;70.70;;;;;;5042428;28;20399;-77
2022/03/26 12:35:05;;;;;;;15.00;8.48;;;18.90;70.80;;;;;;5039186;28;20037;-77
2022/03/26 12:37:35;;;;;;;30.10;9.65;;;18.90;71.50;;;;;;5042739;28;20057;-76
2022/03/26 12:40:04;;;;;;;11.90;8.55;;;19.30;71.70;;;;;;5038624;28;20072;-78
2022/03/26 12:42:29;;;;;;;15.43;9.35;;;19.40;70.80;;;;;;5040397;28;20049;-76